createdAt,value
2018-07-28T00:01:38.338Z,21.70
2018-07-28T00:04:09.146Z,21.50
2018-07-28T00:06:39.533Z,21.43
2018-07-28T00:09:12.043Z,21.42
2018-07-28T00:12:30.616Z,21.40
2018-07-28T00:15:01.092Z,21.40
2018-07-28T00:17:31.642Z,21.38
2018-07-28T00:20:02.094Z,21.41
2018-07-28T00:22:32.640Z,21.59
2018-07-28T00:25:03.073Z,21.70
2018-07-28T00:27:34.070Z,21.59
2018-07-28T00:30:05.116Z,21.47
2018-07-28T00:32:35.512Z,21.50
2018-07-28T00:35:06.044Z,21.54
2018-07-28T00:37:36.778Z,21.41
2018-07-28T00:40:08.101Z,21.48
2018-07-28T00:42:38.696Z,21.62
2018-07-28T00:45:08.802Z,21.59
2018-07-28T00:47:39.218Z,21.43
2018-07-28T00:50:10.501Z,21.46
2018-07-28T00:52:40.930Z,21.36
2018-07-28T00:55:11.420Z,21.26
2018-07-28T00:57:41.811Z,21.04
2018-07-28T01:00:12.564Z,20.94
2018-07-28T01:03:30.960Z,21.06
2018-07-28T01:06:01.352Z,20.94
2018-07-28T01:08:31.777Z,20.89
2018-07-28T01:11:02.129Z,20.94
2018-07-28T01:13:32.925Z,20.95
2018-07-28T01:16:03.520Z,21.09
2018-07-28T01:18:34.250Z,21.08
2018-07-28T01:21:04.694Z,21.01
2018-07-28T01:23:35.447Z,20.93
2018-07-28T01:26:06.206Z,20.80
2018-07-28T01:35:48.769Z,20.95
2018-07-28T01:38:19.205Z,20.85
2018-07-28T01:40:49.641Z,20.77
2018-07-28T01:43:20.065Z,20.65
2018-07-28T01:45:50.454Z,20.55
2018-07-28T01:56:29.417Z,20.35
2018-07-28T01:59:00.104Z,20.39
2018-07-28T02:01:30.712Z,20.30
2018-07-28T02:04:01.472Z,20.22
2018-07-28T02:06:32.521Z,20.22
2018-07-28T02:09:03.140Z,20.25
2018-07-28T02:11:33.618Z,20.24
2018-07-28T02:14:04.060Z,20.17
2018-07-28T02:16:34.557Z,20.12
2018-07-28T02:19:05.335Z,20.15
2018-07-28T02:21:35.815Z,20.17
2018-07-28T02:24:06.286Z,20.23
2018-07-28T02:26:38.727Z,20.48
2018-07-28T02:29:10.717Z,20.49
2018-07-28T02:31:41.552Z,20.31
2018-07-28T02:34:11.960Z,20.21
2018-07-28T02:36:42.407Z,20.32
2018-07-28T02:39:12.932Z,20.41
2018-07-28T02:41:43.480Z,20.33
2018-07-28T02:44:13.881Z,20.25
2018-07-28T02:46:44.280Z,20.12
2018-07-28T02:49:14.678Z,20.11
2018-07-28T02:51:45.116Z,20.06
2018-07-28T02:54:15.632Z,19.94
2018-07-28T02:56:46.052Z,19.92
2018-07-28T02:59:16.462Z,19.98
2018-07-28T03:01:46.926Z,19.88
2018-07-28T03:04:17.370Z,19.86
2018-07-28T03:06:47.766Z,19.89
2018-07-28T03:09:18.562Z,19.84
2018-07-28T03:11:48.980Z,19.81
2018-07-28T03:14:19.692Z,19.73
2018-07-28T03:16:49.893Z,19.75
2018-07-28T03:19:20.244Z,19.74
2018-07-28T03:21:50.698Z,19.71
2018-07-28T03:24:21.034Z,19.68
2018-07-28T03:26:51.412Z,19.75
2018-07-28T03:29:22.154Z,19.72
2018-07-28T03:31:52.606Z,19.75
2018-07-28T03:34:22.992Z,19.77
2018-07-28T03:36:53.400Z,19.83
2018-07-28T03:39:23.838Z,19.79
2018-07-28T03:41:54.198Z,19.78
2018-07-28T03:44:24.620Z,19.74
2018-07-28T03:46:55.024Z,19.71
2018-07-28T03:49:25.424Z,19.68
2018-07-28T03:51:55.976Z,19.74
2018-07-28T03:54:26.374Z,19.72
2018-07-28T03:56:56.757Z,19.73
2018-07-28T03:59:27.106Z,19.79
2018-07-28T04:01:58.393Z,19.79
2018-07-28T04:04:28.808Z,19.93
2018-07-28T04:06:59.180Z,19.89
2018-07-28T04:09:29.558Z,19.95
2018-07-28T04:11:59.994Z,20.07
2018-07-28T04:14:30.612Z,20.09
2018-07-28T04:17:01.208Z,20.01
2018-07-28T04:19:31.542Z,20.03
2018-07-28T04:22:01.958Z,20.20
2018-07-28T04:24:32.300Z,20.38
2018-07-28T04:27:02.747Z,20.56
2018-07-28T04:29:33.277Z,20.58
2018-07-28T04:32:04.530Z,20.58
2018-07-28T04:34:35.064Z,20.77
2018-07-28T04:37:05.520Z,20.73
2018-07-28T04:39:36.094Z,20.80
2018-07-28T04:42:06.766Z,20.93
2018-07-28T04:44:37.232Z,20.92
2018-07-28T04:50:44.236Z,20.75
2018-07-28T04:53:14.721Z,20.90
2018-07-28T04:55:45.129Z,20.88
2018-07-28T04:58:15.474Z,21.28
2018-07-28T05:00:45.997Z,22.36
2018-07-28T05:06:52.291Z,24.98
2018-07-28T05:09:22.638Z,25.09
2018-07-28T05:11:52.975Z,25.15
2018-07-28T05:14:23.974Z,25.64
2018-07-28T05:16:54.362Z,25.85
2018-07-28T05:19:24.784Z,26.01
2018-07-28T05:21:55.136Z,26.76
2018-07-28T05:24:25.514Z,27.55
2018-07-28T05:26:55.870Z,28.68
2018-07-28T05:29:26.276Z,28.46
2018-07-28T05:31:56.378Z,29.22
2018-07-28T05:34:26.501Z,30.33
2018-07-28T05:36:57.135Z,31.17
2018-07-28T05:39:27.365Z,32.34
2018-07-28T05:41:57.802Z,31.53
2018-07-28T05:44:27.909Z,29.98
2018-07-28T05:46:58.044Z,28.91
2018-07-28T05:49:28.100Z,28.75
2018-07-28T05:51:58.217Z,29.64
2018-07-28T05:54:28.469Z,30.35
2018-07-28T05:56:58.554Z,30.29
2018-07-28T05:59:28.982Z,30.57
2018-07-28T06:01:59.883Z,30.97
2018-07-28T06:04:29.940Z,31.11
2018-07-28T06:07:01.695Z,30.82
2018-07-28T06:09:31.829Z,30.07
2018-07-28T06:12:01.947Z,28.99
2018-07-28T06:14:32.453Z,28.17
2018-07-28T06:17:02.857Z,27.65
2018-07-28T06:19:33.295Z,26.53
2018-07-28T06:22:03.681Z,25.97
2018-07-28T06:24:34.596Z,25.25
2018-07-28T06:27:05.351Z,24.98
2018-07-28T06:29:35.776Z,24.58
2018-07-28T06:35:42.790Z,23.60
2018-07-28T06:38:13.249Z,23.56
2018-07-28T06:40:43.658Z,23.42
2018-07-28T06:43:14.027Z,23.34
2018-07-28T06:45:44.507Z,23.28
2018-07-28T06:48:15.020Z,23.31
2018-07-28T06:50:45.434Z,23.11
2018-07-28T06:53:15.802Z,23.01
2018-07-28T06:55:46.160Z,23.06
2018-07-28T06:58:16.667Z,23.09
2018-07-28T07:00:47.100Z,23.18
2018-07-28T07:03:17.567Z,23.18
2018-07-28T07:05:48.031Z,23.21
2018-07-28T07:08:18.726Z,23.30
2018-07-28T07:10:49.243Z,23.32
2018-07-28T07:13:19.690Z,23.30
2018-07-28T07:15:50.025Z,23.33
2018-07-28T07:18:20.415Z,23.29
2018-07-28T07:20:50.919Z,23.31
2018-07-28T07:23:21.649Z,23.35
2018-07-28T07:25:52.289Z,23.41
2018-07-28T07:28:22.646Z,23.33
2018-07-28T07:30:53.065Z,23.29
2018-07-28T07:33:24.097Z,23.28
2018-07-28T07:35:55.079Z,23.13
2018-07-28T07:38:25.553Z,22.88
2018-07-28T07:40:56.081Z,22.67
2018-07-28T07:43:26.515Z,22.38
2018-07-28T07:45:57.046Z,22.03
2018-07-28T07:48:27.581Z,21.90
2018-07-28T07:50:58.137Z,21.71
2018-07-28T07:53:28.625Z,21.59
2018-07-28T07:55:59.073Z,21.36
2018-07-28T07:58:29.509Z,21.04
2018-07-28T08:01:00.399Z,21.11
2018-07-28T08:03:30.959Z,21.20
2018-07-28T08:06:01.577Z,20.93
2018-07-28T08:08:32.079Z,20.95
2018-07-28T08:11:02.656Z,21.03
2018-07-28T08:13:33.118Z,21.10
2018-07-28T08:16:03.781Z,21.16
2018-07-28T08:18:34.255Z,21.23
2018-07-28T08:21:05.533Z,21.28
2018-07-28T08:23:36.297Z,21.16
2018-07-28T08:26:07.773Z,21.12
2018-07-28T08:28:38.808Z,21.18
2018-07-28T08:31:08.853Z,21.16
2018-07-28T08:33:39.855Z,21.26
2018-07-28T08:36:10.394Z,21.35
2018-07-28T08:38:40.858Z,21.31
2018-07-28T08:41:11.443Z,21.34
2018-07-28T08:43:41.884Z,21.42
2018-07-28T08:46:12.944Z,21.29
2018-07-28T08:48:44.633Z,21.33
2018-07-28T08:51:16.142Z,21.21
2018-07-28T08:53:46.654Z,21.12
2018-07-28T08:56:17.996Z,20.89
2018-07-28T08:58:48.626Z,20.78
2018-07-28T09:01:19.648Z,20.94
2018-07-28T09:03:50.086Z,21.16
2018-07-28T09:06:21.758Z,21.41
2018-07-28T09:08:52.379Z,21.57
2018-07-28T09:11:23.307Z,22.00
2018-07-28T09:13:54.670Z,22.14
2018-07-28T09:16:25.772Z,22.48
2018-07-28T09:18:59.580Z,22.62
2018-07-28T09:21:30.623Z,22.76
2018-07-28T09:24:01.466Z,22.93
2018-07-28T09:26:32.573Z,23.53
2018-07-28T09:29:03.084Z,23.97
2018-07-28T09:31:33.602Z,24.48
2018-07-28T09:34:04.824Z,24.89
2018-07-28T09:37:29.793Z,25.04
2018-07-28T09:40:00.228Z,25.09
2018-07-28T09:42:31.521Z,25.30
2018-07-28T09:45:02.308Z,25.02
2018-07-28T09:47:33.649Z,25.26
2018-07-28T09:50:04.740Z,25.14
2018-07-28T09:52:36.126Z,24.87
2018-07-28T09:55:06.369Z,24.86
2018-07-28T09:57:37.948Z,24.95
2018-07-28T10:00:08.882Z,25.29
2018-07-28T10:02:39.777Z,25.18
2018-07-28T10:05:10.284Z,25.19
2018-07-28T10:07:40.952Z,25.22
2018-07-28T10:10:11.446Z,24.98
2018-07-28T10:12:42.999Z,24.91
2018-07-28T10:18:50.700Z,24.96
2018-07-28T10:21:21.208Z,24.93
2018-07-28T10:23:51.776Z,24.91
2018-07-28T10:26:22.293Z,24.99
2018-07-28T10:28:52.788Z,24.97
2018-07-28T10:31:23.348Z,24.85
2018-07-28T10:33:55.108Z,24.71
2018-07-28T10:36:25.857Z,24.75
2018-07-28T10:38:56.512Z,24.86
2018-07-28T10:41:27.035Z,24.83
2018-07-28T10:43:57.578Z,24.82
2018-07-28T10:46:29.478Z,24.83
2018-07-28T10:48:59.928Z,24.96
2018-07-28T10:51:30.510Z,24.83
2018-07-28T10:54:01.844Z,24.85
2018-07-28T10:56:32.740Z,24.66
2018-07-28T10:59:04.000Z,24.78
2018-07-28T11:01:34.466Z,24.73
2018-07-28T11:04:05.664Z,24.79
2018-07-28T11:06:37.370Z,24.66
2018-07-28T11:09:10.248Z,24.62
2018-07-28T11:11:41.006Z,24.59
2018-07-28T11:14:11.588Z,24.60
2018-07-28T11:16:42.156Z,24.52
2018-07-28T11:19:12.658Z,24.48
2018-07-28T11:21:43.178Z,24.39
2018-07-28T11:24:14.289Z,24.25
2018-07-28T11:26:44.830Z,24.18
2018-07-28T11:29:15.314Z,24.17
2018-07-28T11:32:02.630Z,24.00
2018-07-28T11:34:49.938Z,23.91
2018-07-28T11:37:34.484Z,23.85
2018-07-28T11:40:21.632Z,23.74
2018-07-28T11:43:08.698Z,23.75
2018-07-28T11:45:39.409Z,23.65
2018-07-28T11:48:09.927Z,23.61
2018-07-28T11:50:40.416Z,23.53
2018-07-28T11:53:10.827Z,23.70
2018-07-28T11:55:41.434Z,23.72
2018-07-28T11:58:12.043Z,23.78
2018-07-28T12:00:43.198Z,23.83
2018-07-28T12:03:14.496Z,23.86
2018-07-28T12:05:44.934Z,23.85
2018-07-28T12:08:15.589Z,24.03
2018-07-28T12:10:46.134Z,24.26
2018-07-28T12:13:17.054Z,24.43
2018-07-28T12:15:47.574Z,24.63
2018-07-28T12:18:18.570Z,24.70
2018-07-28T12:20:49.216Z,24.84
2018-07-28T12:23:19.665Z,24.94
2018-07-28T12:25:50.221Z,24.85
2018-07-28T12:28:20.746Z,24.68
2018-07-28T12:30:51.362Z,24.55
2018-07-28T12:33:22.708Z,24.59
2018-07-28T12:35:53.168Z,24.50
2018-07-28T12:38:24.112Z,24.43
2018-07-28T12:40:54.678Z,24.22
2018-07-28T12:43:25.439Z,24.32
2018-07-28T12:45:55.908Z,24.46
2018-07-28T12:48:26.434Z,24.76
2018-07-28T12:50:58.518Z,25.01
2018-07-28T12:53:29.098Z,25.28
2018-07-28T12:55:59.701Z,25.46
2018-07-28T12:58:30.438Z,25.48
2018-07-28T13:01:00.908Z,25.57
2018-07-28T13:03:31.425Z,25.61
2018-07-28T13:06:01.989Z,25.56
2018-07-28T13:08:32.484Z,25.75
2018-07-28T13:11:03.508Z,25.80
2018-07-28T13:13:33.886Z,25.69
2018-07-28T13:16:04.420Z,25.55
2018-07-28T13:18:34.980Z,25.61
2018-07-28T13:21:05.815Z,25.39
2018-07-28T13:23:36.942Z,25.51
2018-07-28T13:26:08.442Z,25.27
2018-07-28T13:28:39.562Z,25.45
2018-07-28T13:31:11.065Z,25.10
2018-07-28T13:33:41.554Z,24.97
2018-07-28T13:36:12.208Z,24.68
2018-07-28T13:38:42.635Z,24.67
2018-07-28T13:41:13.262Z,24.72
2018-07-28T13:43:44.069Z,24.74
2018-07-28T13:46:15.734Z,24.65
2018-07-28T13:48:46.185Z,24.18
2018-07-28T13:51:16.718Z,23.98
2018-07-28T13:53:48.578Z,23.77
2018-07-28T13:56:19.284Z,23.75
2018-07-28T13:58:49.955Z,23.86
2018-07-28T14:01:20.437Z,23.69
2018-07-28T14:03:51.579Z,23.70
2018-07-28T14:06:23.109Z,23.64
2018-07-28T14:08:55.545Z,23.27
2018-07-28T14:11:26.915Z,23.39
2018-07-28T14:13:57.757Z,23.40
2018-07-28T14:16:29.241Z,23.40
2018-07-28T14:18:59.606Z,23.59
2018-07-28T14:21:30.053Z,23.71
2018-07-28T14:24:00.847Z,23.78
2018-07-28T14:26:31.471Z,23.57
2018-07-28T14:29:02.245Z,23.69
2018-07-28T14:31:33.365Z,23.77
2018-07-28T14:34:03.936Z,23.91
2018-07-28T14:36:34.705Z,24.03
2018-07-28T14:39:07.775Z,24.14
2018-07-28T14:41:38.583Z,24.04
2018-07-28T14:44:09.277Z,24.00
2018-07-28T14:46:39.871Z,23.93
2018-07-28T14:49:10.357Z,23.95
2018-07-28T14:51:41.197Z,23.89
2018-07-28T14:54:11.703Z,23.68
2018-07-28T14:56:43.065Z,23.63
2018-07-28T14:59:13.605Z,23.51
2018-07-28T15:01:44.367Z,23.56
2018-07-28T15:04:14.957Z,23.61
2018-07-28T15:06:45.377Z,23.70
2018-07-28T15:09:15.733Z,23.80
2018-07-28T15:11:46.588Z,23.76
2018-07-28T15:14:17.072Z,23.81
2018-07-28T15:16:47.836Z,23.87
2018-07-28T15:19:18.250Z,23.80
2018-07-28T15:21:48.775Z,23.75
2018-07-28T15:24:19.283Z,23.59
2018-07-28T15:26:49.693Z,23.60
2018-07-28T15:29:20.129Z,23.62
2018-07-28T15:31:50.569Z,23.56
2018-07-28T15:34:21.208Z,23.54
2018-07-28T15:36:51.850Z,23.51
2018-07-28T15:39:22.440Z,23.51
2018-07-28T15:41:53.597Z,23.50
2018-07-28T15:44:23.947Z,23.59
2018-07-28T15:46:54.429Z,23.65
2018-07-28T15:49:25.777Z,23.66
2018-07-28T15:51:56.637Z,23.62
2018-07-28T15:54:27.089Z,23.50
2018-07-28T15:56:57.808Z,23.55
2018-07-28T15:59:28.315Z,23.46
2018-07-28T16:01:58.917Z,23.32
2018-07-28T16:04:29.573Z,23.50
2018-07-28T16:07:00.817Z,23.49
2018-07-28T16:09:31.375Z,23.55
2018-07-28T16:12:02.714Z,23.51
2018-07-28T16:14:33.389Z,23.42
2018-07-28T16:17:04.068Z,23.49
2018-07-28T16:19:35.725Z,23.51
2018-07-28T16:22:06.189Z,23.50
2018-07-28T16:24:36.744Z,23.52
2018-07-28T16:27:07.533Z,23.53
2018-07-28T16:29:37.970Z,23.65
2018-07-28T16:32:13.101Z,23.52
2018-07-28T16:34:44.021Z,23.46
2018-07-28T16:37:14.497Z,23.37
2018-07-28T16:39:45.559Z,23.39
2018-07-28T16:42:16.138Z,23.36
2018-07-28T16:44:47.029Z,23.36
2018-07-28T16:47:17.879Z,23.30
2018-07-28T16:49:48.265Z,23.16
2018-07-28T16:52:19.044Z,23.13
2018-07-28T16:54:50.215Z,23.22
2018-07-28T16:57:21.009Z,23.29
2018-07-28T16:59:52.025Z,23.49
2018-07-28T17:02:22.451Z,23.53
2018-07-28T17:04:52.817Z,23.70
2018-07-28T17:14:12.787Z,23.69
2018-07-28T17:16:43.288Z,23.78
2018-07-28T17:19:13.624Z,23.83
2018-07-28T17:21:44.207Z,23.93
2018-07-28T17:24:14.712Z,24.15
2018-07-28T17:26:45.226Z,24.29
2018-07-28T17:29:15.747Z,24.25
2018-07-28T17:31:46.097Z,24.37
2018-07-28T17:34:16.631Z,24.45
2018-07-28T17:36:46.979Z,24.38
2018-07-28T17:39:26.630Z,24.41
2018-07-28T17:41:57.385Z,24.44
2018-07-28T17:44:27.759Z,24.38
2018-07-28T17:46:58.278Z,24.42
2018-07-28T17:49:28.692Z,24.48
2018-07-28T17:51:59.841Z,24.42
2018-07-28T17:54:30.877Z,24.44
2018-07-28T17:57:01.516Z,24.55
2018-07-28T17:59:32.311Z,24.50
2018-07-28T18:02:02.869Z,24.50
2018-07-28T18:04:33.286Z,24.32
2018-07-28T18:07:03.840Z,24.32
2018-07-28T18:09:34.563Z,24.14
2018-07-28T18:12:04.931Z,24.06
2018-07-28T18:14:35.455Z,23.90
2018-07-28T18:17:05.871Z,23.88
2018-07-28T18:19:36.307Z,23.92
2018-07-28T18:22:07.100Z,23.83
2018-07-28T18:24:37.945Z,23.77
2018-07-28T18:27:08.386Z,23.81
2018-07-28T18:29:38.948Z,23.73
2018-07-28T18:32:09.631Z,23.69
2018-07-28T18:34:40.396Z,23.63
2018-07-28T18:37:10.794Z,23.61
2018-07-28T18:39:41.179Z,23.47
2018-07-28T18:42:11.614Z,23.36
2018-07-28T18:44:42.056Z,23.22
2018-07-28T18:47:12.596Z,23.11
2018-07-28T18:49:43.332Z,23.04
2018-07-28T18:52:13.700Z,22.96
2018-07-28T18:54:44.074Z,22.94
2018-07-28T18:57:14.984Z,22.84
2018-07-28T18:59:45.351Z,22.72
2018-07-28T19:02:15.812Z,22.74
2018-07-28T19:04:46.471Z,22.67
2018-07-28T19:07:17.267Z,22.59
2018-07-28T19:09:50.884Z,22.55
2018-07-28T19:12:26.108Z,22.52
2018-07-28T19:14:56.500Z,22.59
2018-07-28T19:17:32.219Z,22.52
2018-07-28T19:20:03.033Z,22.53
2018-07-28T19:22:38.598Z,22.35
2018-07-28T19:25:09.228Z,22.33
2018-07-28T19:27:39.770Z,22.20
2018-07-28T19:30:10.141Z,22.13
2018-07-28T19:32:40.728Z,22.05
2018-07-28T19:35:11.399Z,22.01
2018-07-28T19:37:42.451Z,21.99
2018-07-28T19:40:12.904Z,21.93
2018-07-28T19:42:49.971Z,21.88
2018-07-28T19:45:20.869Z,21.80
2018-07-28T19:47:51.476Z,21.81
2018-07-28T19:50:21.880Z,21.76
2018-07-28T19:52:52.233Z,21.80
2018-07-28T19:55:22.933Z,21.81
2018-07-28T19:57:53.342Z,21.81
2018-07-28T20:00:23.696Z,21.75
2018-07-28T20:02:54.096Z,21.75
2018-07-28T20:05:24.901Z,21.65
2018-07-28T20:07:55.272Z,21.64
2018-07-28T20:10:25.665Z,21.54
2018-07-28T20:12:56.167Z,21.51
2018-07-28T20:15:26.820Z,21.50
2018-07-28T20:17:57.545Z,21.46
2018-07-28T20:20:28.207Z,21.48
2018-07-28T20:22:58.575Z,21.43
2018-07-28T20:25:29.019Z,21.38
2018-07-28T20:27:59.760Z,21.38
2018-07-28T20:30:30.449Z,21.32
2018-07-28T20:33:00.879Z,21.28
2018-07-28T20:35:31.250Z,21.29
2018-07-28T20:38:01.650Z,21.25
2018-07-28T20:40:32.032Z,21.24
2018-07-28T20:43:02.645Z,21.25
2018-07-28T20:45:33.049Z,21.22
2018-07-28T20:48:03.467Z,21.25
2018-07-28T20:50:34.159Z,21.29
2018-07-28T20:53:04.611Z,21.25
2018-07-28T20:55:35.367Z,21.25
2018-07-28T20:58:05.829Z,21.33
2018-07-28T21:00:37.491Z,21.26
2018-07-28T21:03:08.349Z,21.19
2018-07-28T21:05:38.787Z,21.25
2018-07-28T21:08:09.978Z,21.19
2018-07-28T21:10:40.401Z,21.07
2018-07-28T21:13:10.817Z,21.03
2018-07-28T21:15:45.130Z,20.96
2018-07-28T21:18:15.535Z,20.91
2018-07-28T21:20:46.258Z,20.92
2018-07-28T21:23:17.581Z,20.85
2018-07-28T21:25:48.773Z,20.91
2018-07-28T21:28:19.714Z,20.95
2018-07-28T21:30:50.759Z,20.83
2018-07-28T21:33:21.088Z,20.82
2018-07-28T21:35:52.747Z,20.91
2018-07-28T21:38:23.973Z,20.94
2018-07-28T21:40:54.415Z,20.77
2018-07-28T21:43:24.821Z,20.79
2018-07-28T21:45:55.232Z,20.75
2018-07-28T21:48:25.759Z,20.66
2018-07-28T21:50:56.603Z,20.68
2018-07-28T21:53:27.381Z,20.61
2018-07-28T21:55:57.827Z,20.50
2018-07-28T21:58:28.201Z,20.51
2018-07-28T22:11:47.029Z,20.21
2018-07-28T22:14:18.175Z,20.27
2018-07-28T22:16:48.660Z,20.17
2018-07-28T22:19:19.375Z,20.00
2018-07-28T22:21:50.535Z,19.97
2018-07-28T22:24:21.015Z,19.90
2018-07-28T22:26:51.763Z,19.83
2018-07-28T22:29:22.304Z,19.70
2018-07-28T22:31:52.773Z,19.79
2018-07-28T22:34:23.149Z,19.73
2018-07-28T22:36:53.800Z,19.77
2018-07-28T22:39:24.839Z,19.74
2018-07-28T22:41:55.321Z,19.73
2018-07-28T22:44:25.749Z,19.75
2018-07-28T22:46:56.852Z,19.73
2018-07-28T22:49:27.309Z,19.69
2018-07-28T22:51:57.967Z,19.73
2018-07-28T22:54:28.365Z,19.66
2018-07-28T22:56:58.779Z,19.57
2018-07-28T22:59:29.287Z,19.78
2018-07-28T23:01:59.677Z,19.56
2018-07-28T23:04:30.127Z,19.54
2018-07-28T23:07:00.515Z,19.32
2018-07-28T23:09:31.221Z,19.04
2018-07-28T23:12:01.599Z,18.77
2018-07-28T23:14:32.136Z,18.69
2018-07-28T23:17:02.051Z,18.67
2018-07-28T23:19:34.108Z,18.83
2018-07-28T23:22:04.621Z,18.94
2018-07-28T23:24:35.467Z,18.91
2018-07-28T23:27:06.294Z,19.04
2018-07-28T23:29:36.253Z,18.96
2018-07-28T23:32:07.418Z,18.94
2018-07-28T23:34:37.174Z,18.96
2018-07-28T23:37:07.844Z,19.12
2018-07-28T23:39:38.297Z,19.15
2018-07-28T23:42:08.716Z,19.21
2018-07-28T23:44:41.080Z,19.29
2018-07-28T23:47:11.436Z,19.30
2018-07-28T23:49:42.383Z,19.32
2018-07-28T23:52:13.066Z,19.33
2018-07-28T23:54:43.469Z,19.42
2018-07-28T23:57:14.735Z,19.35
2018-07-28T23:59:45.150Z,19.43
